<?xml version="1.0" encoding="utf-8"?>
<gpx xmlns:xsi="http://www.w3.org/2001/XMLSchema-instance" xmlns:xsd="http://www.w3.org/2001/XMLSchema" version="1.1" creator="Shapelink.com" xmlns="http://www.topografix.com/GPX/1/1" xmlns:gpxtpx="http://www.garmin.com/xmlschemas/TrackPointExtension/v1">
  <metadata>
    <name>Cykling 24.65 km, 2019-05-19</name>
    <desc></desc>
    <author><name>Marian Moron</name></author> 
    <time>2019-05-19T11:58:43Z</time>
  </metadata>
  <trk>
    <name>Cykling 24.65 km, 2019-05-19</name>
    <trkseg>
      <trkpt lat="51.228493234878" lon="4.449176976811">
        <ele>12.2</ele>
        <time>2019-05-19T11:58:43Z</time>
      </trkpt>
      <trkpt lat="51.228852734569" lon="4.448719241252">
        <ele>11.6</ele>
        <time>2019-05-19T11:59:24Z</time>
      </trkpt>
      <trkpt lat="51.228981480553" lon="4.448506089535">
        <ele>11.2</ele>
        <time>2019-05-19T11:59:35Z</time>
      </trkpt>
      <trkpt lat="51.228982067286" lon="4.448464180035">
        <ele>11</ele>
        <time>2019-05-19T11:59:37Z</time>
      </trkpt>
      <trkpt lat="51.228639247576" lon="4.447781641918">
        <ele>6.6</ele>
        <time>2019-05-19T12:00:00Z</time>
      </trkpt>
      <trkpt lat="51.22832962019" lon="4.447206559759">
        <ele>2</ele>
        <time>2019-05-19T12:00:17Z</time>
      </trkpt>
      <trkpt lat="51.227905579869" lon="4.447761609177">
        <ele>0</ele>
        <time>2019-05-19T12:00:33Z</time>
      </trkpt>
      <trkpt lat="51.227489418534" lon="4.448380947768">
        <ele>0</ele>
        <time>2019-05-19T12:00:49Z</time>
      </trkpt>
      <trkpt lat="51.227134277431" lon="4.44902283367">
        <ele>0</ele>
        <time>2019-05-19T12:01:03Z</time>
      </trkpt>
      <trkpt lat="51.226744267624" lon="4.449429607277">
        <ele>0</ele>
        <time>2019-05-19T12:01:20Z</time>
      </trkpt>
      <trkpt lat="51.226585430619" lon="4.449527088774">
        <ele>0</ele>
        <time>2019-05-19T12:01:28Z</time>
      </trkpt>
      <trkpt lat="51.226258033605" lon="4.448849831254">
        <ele>0</ele>
        <time>2019-05-19T12:01:51Z</time>
      </trkpt>
      <trkpt lat="51.226234899561" lon="4.44885603386">
        <ele>0</ele>
        <time>2019-05-19T12:01:52Z</time>
      </trkpt>
      <trkpt lat="51.225879087906" lon="4.449545193678">
        <ele>0</ele>
        <time>2019-05-19T12:02:09Z</time>
      </trkpt>
      <trkpt lat="51.225322445927" lon="4.449719704836">
        <ele>0</ele>
        <time>2019-05-19T12:02:23Z</time>
      </trkpt>
      <trkpt lat="51.224843252704" lon="4.450100159277">
        <ele>0</ele>
        <time>2019-05-19T12:02:35Z</time>
      </trkpt>
      <trkpt lat="51.224441424418" lon="4.450752187278">
        <ele>0</ele>
        <time>2019-05-19T12:02:46Z</time>
      </trkpt>
      <trkpt lat="51.224026520368" lon="4.451329113455">
        <ele>0</ele>
        <time>2019-05-19T12:02:58Z</time>
      </trkpt>
      <trkpt lat="51.223895427452" lon="4.451382925253">
        <ele>0</ele>
        <time>2019-05-19T12:03:01Z</time>
      </trkpt>
      <trkpt lat="51.223807836597" lon="4.451375716819">
        <ele>0</ele>
        <time>2019-05-19T12:03:03Z</time>
      </trkpt>
      <trkpt lat="51.223246584573" lon="4.451196008883">
        <ele>0</ele>
        <time>2019-05-19T12:03:16Z</time>
      </trkpt>
      <trkpt lat="51.222769403006" lon="4.451071202392">
        <ele>0</ele>
        <time>2019-05-19T12:03:28Z</time>
      </trkpt>
      <trkpt lat="51.222226926438" lon="4.451159882894">
        <ele>0</ele>
        <time>2019-05-19T12:03:40Z</time>
      </trkpt>
      <trkpt lat="51.222094911513" lon="4.451235068537">
        <ele>0</ele>
        <time>2019-05-19T12:03:43Z</time>
      </trkpt>
      <trkpt lat="51.2215813525" lon="4.451598759178">
        <ele>0</ele>
        <time>2019-05-19T12:03:56Z</time>
      </trkpt>
      <trkpt lat="51.221017669725" lon="4.451773354155">
        <ele>6.6</ele>
        <time>2019-05-19T12:04:15Z</time>
      </trkpt>
      <trkpt lat="51.220454573683" lon="4.451923557803">
        <ele>9</ele>
        <time>2019-05-19T12:04:27Z</time>
      </trkpt>
      <trkpt lat="51.219878904791" lon="4.452031349037">
        <ele>4.2</ele>
        <time>2019-05-19T12:04:40Z</time>
      </trkpt>
      <trkpt lat="51.219307259211" lon="4.452112988743">
        <ele>5</ele>
        <time>2019-05-19T12:04:53Z</time>
      </trkpt>
      <trkpt lat="51.219021604059" lon="4.452656052044">
        <ele>0</ele>
        <time>2019-05-19T12:05:08Z</time>
      </trkpt>
      <trkpt lat="51.219340702992" lon="4.453430539604">
        <ele>0.2</ele>
        <time>2019-05-19T12:05:20Z</time>
      </trkpt>
      <trkpt lat="51.219474645754" lon="4.453809652941">
        <ele>0.2</ele>
        <time>2019-05-19T12:05:33Z</time>
      </trkpt>
      <trkpt lat="51.219462659637" lon="4.453812838063">
        <ele>2</ele>
        <time>2019-05-19T12:05:44Z</time>
      </trkpt>
      <trkpt lat="51.219400465939" lon="4.453855334296">
        <ele>0.6</ele>
        <time>2019-05-19T12:05:53Z</time>
      </trkpt>
      <trkpt lat="51.21891171735" lon="4.454343328514">
        <ele>0</ele>
        <time>2019-05-19T12:06:11Z</time>
      </trkpt>
      <trkpt lat="51.218429422824" lon="4.45482646123">
        <ele>0</ele>
        <time>2019-05-19T12:06:24Z</time>
      </trkpt>
      <trkpt lat="51.218102361086" lon="4.455456528653">
        <ele>0</ele>
        <time>2019-05-19T12:06:40Z</time>
      </trkpt>
      <trkpt lat="51.218058859025" lon="4.456333359212">
        <ele>0</ele>
        <time>2019-05-19T12:06:54Z</time>
      </trkpt>
      <trkpt lat="51.218002532657" lon="4.457224606639">
        <ele>0</ele>
        <time>2019-05-19T12:07:08Z</time>
      </trkpt>
      <trkpt lat="51.217979147156" lon="4.458089283443">
        <ele>2.2</ele>
        <time>2019-05-19T12:07:22Z</time>
      </trkpt>
      <trkpt lat="51.217967496315" lon="4.458948763469">
        <ele>0</ele>
        <time>2019-05-19T12:07:35Z</time>
      </trkpt>
      <trkpt lat="51.217928269023" lon="4.459863228759">
        <ele>0</ele>
        <time>2019-05-19T12:07:48Z</time>
      </trkpt>
      <trkpt lat="51.217893232681" lon="4.460737460929">
        <ele>0</ele>
        <time>2019-05-19T12:08:00Z</time>
      </trkpt>
      <trkpt lat="51.217842522186" lon="4.461607250692">
        <ele>0</ele>
        <time>2019-05-19T12:08:16Z</time>
      </trkpt>
      <trkpt lat="51.217809581319" lon="4.46249422335">
        <ele>0</ele>
        <time>2019-05-19T12:08:29Z</time>
      </trkpt>
      <trkpt lat="51.217769599656" lon="4.463402486034">
        <ele>0</ele>
        <time>2019-05-19T12:08:42Z</time>
      </trkpt>
      <trkpt lat="51.217713608564" lon="4.464276885842">
        <ele>0</ele>
        <time>2019-05-19T12:08:55Z</time>
      </trkpt>
      <trkpt lat="51.217692318538" lon="4.465184980888">
        <ele>0</ele>
        <time>2019-05-19T12:09:09Z</time>
      </trkpt>
      <trkpt lat="51.217688546683" lon="4.466047981312">
        <ele>0</ele>
        <time>2019-05-19T12:09:22Z</time>
      </trkpt>
      <trkpt lat="51.217665580277" lon="4.466916262333">
        <ele>0</ele>
        <time>2019-05-19T12:09:34Z</time>
      </trkpt>
      <trkpt lat="51.217634483428" lon="4.467185824237">
        <ele>0</ele>
        <time>2019-05-19T12:09:38Z</time>
      </trkpt>
      <trkpt lat="51.21758737715" lon="4.467929466405">
        <ele>0</ele>
        <time>2019-05-19T12:09:49Z</time>
      </trkpt>
      <trkpt lat="51.217679075136" lon="4.468195088816">
        <ele>0</ele>
        <time>2019-05-19T12:09:57Z</time>
      </trkpt>
      <trkpt lat="51.217654516169" lon="4.468081094976">
        <ele>1</ele>
        <time>2019-05-19T12:13:47Z</time>
      </trkpt>
      <trkpt lat="51.217535660827" lon="4.468383178652">
        <ele>0</ele>
        <time>2019-05-19T12:14:01Z</time>
      </trkpt>
      <trkpt lat="51.21710122695" lon="4.467866266879">
        <ele>0</ele>
        <time>2019-05-19T12:14:20Z</time>
      </trkpt>
      <trkpt lat="51.216694872438" lon="4.467298309335">
        <ele>0</ele>
        <time>2019-05-19T12:14:36Z</time>
      </trkpt>
      <trkpt lat="51.21630829921" lon="4.466664470057">
        <ele>0</ele>
        <time>2019-05-19T12:14:53Z</time>
      </trkpt>
      <trkpt lat="51.215903956354" lon="4.466056698488">
        <ele>0</ele>
        <time>2019-05-19T12:15:05Z</time>
      </trkpt>
      <trkpt lat="51.215859113189" lon="4.466014118436">
        <ele>0</ele>
        <time>2019-05-19T12:15:06Z</time>
      </trkpt>
      <trkpt lat="51.215721398572" lon="4.465987715451">
        <ele>0</ele>
        <time>2019-05-19T12:15:09Z</time>
      </trkpt>
      <trkpt lat="51.215633891536" lon="4.466053848642">
        <ele>0</ele>
        <time>2019-05-19T12:15:11Z</time>
      </trkpt>
      <trkpt lat="51.215433899402" lon="4.466840489957">
        <ele>0</ele>
        <time>2019-05-19T12:15:26Z</time>
      </trkpt>
      <trkpt lat="51.215396516128" lon="4.467007625043">
        <ele>0</ele>
        <time>2019-05-19T12:15:30Z</time>
      </trkpt>
      <trkpt lat="51.214858984881" lon="4.467036626417">
        <ele>0</ele>
        <time>2019-05-19T12:15:51Z</time>
      </trkpt>
      <trkpt lat="51.214402925702" lon="4.466545866172">
        <ele>0</ele>
        <time>2019-05-19T12:16:05Z</time>
      </trkpt>
      <trkpt lat="51.213885343377" lon="4.466226096687">
        <ele>0</ele>
        <time>2019-05-19T12:16:16Z</time>
      </trkpt>
      <trkpt lat="51.213805044775" lon="4.466143367334">
        <ele>0</ele>
        <time>2019-05-19T12:16:18Z</time>
      </trkpt>
      <trkpt lat="51.213536488699" lon="4.46607664741">
        <ele>0</ele>
        <time>2019-05-19T12:16:25Z</time>
      </trkpt>
      <trkpt lat="51.213379495712" lon="4.466120652385">
        <ele>0</ele>
        <time>2019-05-19T12:16:29Z</time>
      </trkpt>
      <trkpt lat="51.21332601919" lon="4.466016213911">
        <ele>0</ele>
        <time>2019-05-19T12:16:31Z</time>
      </trkpt>
      <trkpt lat="51.21332266643" lon="4.465883109339">
        <ele>0</ele>
        <time>2019-05-19T12:16:33Z</time>
      </trkpt>
      <trkpt lat="51.213361893722" lon="4.46568521268">
        <ele>0</ele>
        <time>2019-05-19T12:16:36Z</time>
      </trkpt>
      <trkpt lat="51.213320403317" lon="4.465420512278">
        <ele>0</ele>
        <time>2019-05-19T12:16:41Z</time>
      </trkpt>
      <trkpt lat="51.213218144137" lon="4.465378938054">
        <ele>0</ele>
        <time>2019-05-19T12:16:43Z</time>
      </trkpt>
      <trkpt lat="51.212677092492" lon="4.465176934264">
        <ele>0</ele>
        <time>2019-05-19T12:16:56Z</time>
      </trkpt>
      <trkpt lat="51.212143668376" lon="4.46539938989">
        <ele>0</ele>
        <time>2019-05-19T12:17:12Z</time>
      </trkpt>
      <trkpt lat="51.211643185127" lon="4.465059252388">
        <ele>0</ele>
        <time>2019-05-19T12:17:26Z</time>
      </trkpt>
      <trkpt lat="51.211622984748" lon="4.46424939321">
        <ele>0</ele>
        <time>2019-05-19T12:17:44Z</time>
      </trkpt>
      <trkpt lat="51.211593145184" lon="4.464222990225">
        <ele>0</ele>
        <time>2019-05-19T12:17:45Z</time>
      </trkpt>
      <trkpt lat="51.211044549829" lon="4.464231036849">
        <ele>0</ele>
        <time>2019-05-19T12:18:04Z</time>
      </trkpt>
      <trkpt lat="51.210496038293" lon="4.464039426615">
        <ele>0</ele>
        <time>2019-05-19T12:18:18Z</time>
      </trkpt>
      <trkpt lat="51.209952472078" lon="4.463820826663">
        <ele>0</ele>
        <time>2019-05-19T12:18:35Z</time>
      </trkpt>
      <trkpt lat="51.209788773571" lon="4.463868603493">
        <ele>0</ele>
        <time>2019-05-19T12:18:41Z</time>
      </trkpt>
      <trkpt lat="51.209678719224" lon="4.464740237274">
        <ele>0</ele>
        <time>2019-05-19T12:18:56Z</time>
      </trkpt>
      <trkpt lat="51.209542764806" lon="4.465633496357">
        <ele>0</ele>
        <time>2019-05-19T12:19:10Z</time>
      </trkpt>
      <trkpt lat="51.209384179258" lon="4.466482499008">
        <ele>0</ele>
        <time>2019-05-19T12:19:24Z</time>
      </trkpt>
      <trkpt lat="51.20933958755" lon="4.466726496117">
        <ele>0</ele>
        <time>2019-05-19T12:19:28Z</time>
      </trkpt>
      <trkpt lat="51.209206902073" lon="4.467609277825">
        <ele>0</ele>
        <time>2019-05-19T12:19:42Z</time>
      </trkpt>
      <trkpt lat="51.209077317899" lon="4.468470434231">
        <ele>0</ele>
        <time>2019-05-19T12:19:56Z</time>
      </trkpt>
      <trkpt lat="51.209074803329" lon="4.469354389405">
        <ele>0</ele>
        <time>2019-05-19T12:20:10Z</time>
      </trkpt>
      <trkpt lat="51.209070277103" lon="4.470221329322">
        <ele>0</ele>
        <time>2019-05-19T12:20:23Z</time>
      </trkpt>
      <trkpt lat="51.209054016217" lon="4.471128921454">
        <ele>0</ele>
        <time>2019-05-19T12:20:36Z</time>
      </trkpt>
      <trkpt lat="51.209051501647" lon="4.471990832231">
        <ele>0</ele>
        <time>2019-05-19T12:20:48Z</time>
      </trkpt>
      <trkpt lat="51.209075138605" lon="4.472653337607">
        <ele>0</ele>
        <time>2019-05-19T12:20:58Z</time>
      </trkpt>
      <trkpt lat="51.209144959832" lon="4.472777473546">
        <ele>0</ele>
        <time>2019-05-19T12:21:05Z</time>
      </trkpt>
      <trkpt lat="51.209134231" lon="4.472747885439">
        <ele>0</ele>
        <time>2019-05-19T12:22:40Z</time>
      </trkpt>
      <trkpt lat="51.209171614274" lon="4.472785687808">
        <ele>0</ele>
        <time>2019-05-19T12:22:44Z</time>
      </trkpt>
      <trkpt lat="51.209626164711" lon="4.473298157174">
        <ele>0</ele>
        <time>2019-05-19T12:23:03Z</time>
      </trkpt>
      <trkpt lat="51.209616693164" lon="4.473373007541">
        <ele>0</ele>
        <time>2019-05-19T12:23:09Z</time>
      </trkpt>
      <trkpt lat="51.209457185607" lon="4.47348959977">
        <ele>0</ele>
        <time>2019-05-19T12:23:17Z</time>
      </trkpt>
      <trkpt lat="51.208990816691" lon="4.473094393185">
        <ele>0</ele>
        <time>2019-05-19T12:23:33Z</time>
      </trkpt>
      <trkpt lat="51.208977154194" lon="4.473149378449">
        <ele>0</ele>
        <time>2019-05-19T12:23:37Z</time>
      </trkpt>
      <trkpt lat="51.208903477293" lon="4.47402687956">
        <ele>0</ele>
        <time>2019-05-19T12:23:52Z</time>
      </trkpt>
      <trkpt lat="51.208830973858" lon="4.47468821147">
        <ele>0</ele>
        <time>2019-05-19T12:24:03Z</time>
      </trkpt>
      <trkpt lat="51.208755033844" lon="4.475486000712">
        <ele>0</ele>
        <time>2019-05-19T12:24:15Z</time>
      </trkpt>
      <trkpt lat="51.208629975896" lon="4.476369117696">
        <ele>0</ele>
        <time>2019-05-19T12:24:28Z</time>
      </trkpt>
      <trkpt lat="51.208556215176" lon="4.476971776306">
        <ele>0</ele>
        <time>2019-05-19T12:24:37Z</time>
      </trkpt>
      <trkpt lat="51.208432833608" lon="4.477847852494">
        <ele>0</ele>
        <time>2019-05-19T12:24:50Z</time>
      </trkpt>
      <trkpt lat="51.20842260769" lon="4.477910968201">
        <ele>0</ele>
        <time>2019-05-19T12:24:51Z</time>
      </trkpt>
      <trkpt lat="51.208149776845" lon="4.478706410511">
        <ele>0</ele>
        <time>2019-05-19T12:25:07Z</time>
      </trkpt>
      <trkpt lat="51.207730514207" lon="4.479384925316">
        <ele>0</ele>
        <time>2019-05-19T12:25:22Z</time>
      </trkpt>
      <trkpt lat="51.207297253796" lon="4.479925557866">
        <ele>0</ele>
        <time>2019-05-19T12:25:35Z</time>
      </trkpt>
      <trkpt lat="51.206829627595" lon="4.480464765493">
        <ele>0</ele>
        <time>2019-05-19T12:25:48Z</time>
      </trkpt>
      <trkpt lat="51.206374155149" lon="4.480954687548">
        <ele>0</ele>
        <time>2019-05-19T12:26:01Z</time>
      </trkpt>
      <trkpt lat="51.205905104025" lon="4.481465648172">
        <ele>0</ele>
        <time>2019-05-19T12:26:15Z</time>
      </trkpt>
      <trkpt lat="51.205449296303" lon="4.482028911852">
        <ele>0</ele>
        <time>2019-05-19T12:26:27Z</time>
      </trkpt>
      <trkpt lat="51.205017125539" lon="4.482552445326">
        <ele>0</ele>
        <time>2019-05-19T12:26:40Z</time>
      </trkpt>
      <trkpt lat="51.204523012534" lon="4.483035578042">
        <ele>0</ele>
        <time>2019-05-19T12:26:55Z</time>
      </trkpt>
      <trkpt lat="51.204113975814" lon="4.483606133975">
        <ele>0</ele>
        <time>2019-05-19T12:27:07Z</time>
      </trkpt>
      <trkpt lat="51.20367845229" lon="4.484114412391">
        <ele>0</ele>
        <time>2019-05-19T12:27:22Z</time>
      </trkpt>
      <trkpt lat="51.203229601545" lon="4.484597377469">
        <ele>0</ele>
        <time>2019-05-19T12:27:37Z</time>
      </trkpt>
      <trkpt lat="51.20279667641" lon="4.485153432715">
        <ele>0</ele>
        <time>2019-05-19T12:27:50Z</time>
      </trkpt>
      <trkpt lat="51.202604814719" lon="4.485466077585">
        <ele>0</ele>
        <time>2019-05-19T12:27:59Z</time>
      </trkpt>
      <trkpt lat="51.202581345399" lon="4.485531707862">
        <ele>0</ele>
        <time>2019-05-19T12:28:27Z</time>
      </trkpt>
      <trkpt lat="51.202513535828" lon="4.485653748326">
        <ele>0</ele>
        <time>2019-05-19T12:28:32Z</time>
      </trkpt>
      <trkpt lat="51.202066277644" lon="4.486079548846">
        <ele>0</ele>
        <time>2019-05-19T12:28:48Z</time>
      </trkpt>
      <trkpt lat="51.201712142369" lon="4.486746999543">
        <ele>0</ele>
        <time>2019-05-19T12:29:03Z</time>
      </trkpt>
      <trkpt lat="51.201505109439" lon="4.487177577746">
        <ele>0</ele>
        <time>2019-05-19T12:29:11Z</time>
      </trkpt>
      <trkpt lat="51.201143095178" lon="4.487849973764">
        <ele>0</ele>
        <time>2019-05-19T12:29:24Z</time>
      </trkpt>
      <trkpt lat="51.200779404537" lon="4.488519100841">
        <ele>0</ele>
        <time>2019-05-19T12:29:39Z</time>
      </trkpt>
      <trkpt lat="51.200398531001" lon="4.489202896243">
        <ele>0.6</ele>
        <time>2019-05-19T12:29:54Z</time>
      </trkpt>
      <trkpt lat="51.20000466552" lon="4.489844279231">
        <ele>0</ele>
        <time>2019-05-19T12:30:08Z</time>
      </trkpt>
      <trkpt lat="51.199649440598" lon="4.49053000247">
        <ele>0</ele>
        <time>2019-05-19T12:30:22Z</time>
      </trkpt>
      <trkpt lat="51.199292371658" lon="4.491198626633">
        <ele>0</ele>
        <time>2019-05-19T12:30:41Z</time>
      </trkpt>
      <trkpt lat="51.199140072535" lon="4.491566340586">
        <ele>0</ele>
        <time>2019-05-19T12:30:48Z</time>
      </trkpt>
      <trkpt lat="51.198833043538" lon="4.492308976926">
        <ele>0</ele>
        <time>2019-05-19T12:31:02Z</time>
      </trkpt>
      <trkpt lat="51.198486116697" lon="4.493008027386">
        <ele>0</ele>
        <time>2019-05-19T12:31:17Z</time>
      </trkpt>
      <trkpt lat="51.198211693291" lon="4.493769103906">
        <ele>0</ele>
        <time>2019-05-19T12:31:30Z</time>
      </trkpt>
      <trkpt lat="51.197886810847" lon="4.494516853205">
        <ele>0</ele>
        <time>2019-05-19T12:31:43Z</time>
      </trkpt>
      <trkpt lat="51.197569555932" lon="4.495249766541">
        <ele>0</ele>
        <time>2019-05-19T12:31:55Z</time>
      </trkpt>
      <trkpt lat="51.197237045959" lon="4.495982512239">
        <ele>0</ele>
        <time>2019-05-19T12:32:08Z</time>
      </trkpt>
      <trkpt lat="51.196926328926" lon="4.496600677364">
        <ele>0</ele>
        <time>2019-05-19T12:32:21Z</time>
      </trkpt>
      <trkpt lat="51.196732623217" lon="4.496955734648">
        <ele>0</ele>
        <time>2019-05-19T12:32:33Z</time>
      </trkpt>
      <trkpt lat="51.196686690405" lon="4.497042906408">
        <ele>0.8</ele>
        <time>2019-05-19T12:32:50Z</time>
      </trkpt>
      <trkpt lat="51.196520812604" lon="4.497890232679">
        <ele>0</ele>
        <time>2019-05-19T12:33:12Z</time>
      </trkpt>
      <trkpt lat="51.196269187966" lon="4.498689614482">
        <ele>1.2</ele>
        <time>2019-05-19T12:33:25Z</time>
      </trkpt>
      <trkpt lat="51.196129545512" lon="4.499228654471">
        <ele>2.8</ele>
        <time>2019-05-19T12:33:33Z</time>
      </trkpt>
      <trkpt lat="51.195972384887" lon="4.500090649067">
        <ele>2</ele>
        <time>2019-05-19T12:33:46Z</time>
      </trkpt>
      <trkpt lat="51.195899294719" lon="4.500600520044">
        <ele>2.4</ele>
        <time>2019-05-19T12:33:54Z</time>
      </trkpt>
      <trkpt lat="51.195843806541" lon="4.50145916188">
        <ele>2.6</ele>
        <time>2019-05-19T12:34:06Z</time>
      </trkpt>
      <trkpt lat="51.195850092966" lon="4.502330544204">
        <ele>1.4</ele>
        <time>2019-05-19T12:34:19Z</time>
      </trkpt>
      <trkpt lat="51.19589501995" lon="4.503186336194">
        <ele>0.6</ele>
        <time>2019-05-19T12:34:35Z</time>
      </trkpt>
      <trkpt lat="51.195954363802" lon="4.504038021053">
        <ele>2.6</ele>
        <time>2019-05-19T12:34:49Z</time>
      </trkpt>
      <trkpt lat="51.196046145607" lon="4.504736820056">
        <ele>3.2</ele>
        <time>2019-05-19T12:34:59Z</time>
      </trkpt>
      <trkpt lat="51.196140525801" lon="4.505621697239">
        <ele>3.2</ele>
        <time>2019-05-19T12:35:13Z</time>
      </trkpt>
      <trkpt lat="51.196225518267" lon="4.506526188068">
        <ele>2</ele>
        <time>2019-05-19T12:35:26Z</time>
      </trkpt>
      <trkpt lat="51.196224009525" lon="4.506851824883">
        <ele>1.4</ele>
        <time>2019-05-19T12:35:31Z</time>
      </trkpt>
      <trkpt lat="51.196205569345" lon="4.507051062646">
        <ele>1.2</ele>
        <time>2019-05-19T12:35:34Z</time>
      </trkpt>
      <trkpt lat="51.196251837433" lon="4.50767517892">
        <ele>1</ele>
        <time>2019-05-19T12:35:43Z</time>
      </trkpt>
      <trkpt lat="51.196343367781" lon="4.50806661365">
        <ele>0.6</ele>
        <time>2019-05-19T12:35:49Z</time>
      </trkpt>
      <trkpt lat="51.19642810879" lon="4.508976552714">
        <ele>0</ele>
        <time>2019-05-19T12:36:03Z</time>
      </trkpt>
      <trkpt lat="51.196443782943" lon="4.509175706658">
        <ele>0</ele>
        <time>2019-05-19T12:36:06Z</time>
      </trkpt>
      <trkpt lat="51.19651276598" lon="4.510055135606">
        <ele>0</ele>
        <time>2019-05-19T12:36:19Z</time>
      </trkpt>
      <trkpt lat="51.196569427624" lon="4.510927942853">
        <ele>0</ele>
        <time>2019-05-19T12:36:33Z</time>
      </trkpt>
      <trkpt lat="51.196619467567" lon="4.511777029323">
        <ele>3.2</ele>
        <time>2019-05-19T12:36:49Z</time>
      </trkpt>
      <trkpt lat="51.196745028429" lon="4.512611447468">
        <ele>2.6</ele>
        <time>2019-05-19T12:37:05Z</time>
      </trkpt>
      <trkpt lat="51.196848963989" lon="4.513477297738">
        <ele>1</ele>
        <time>2019-05-19T12:37:19Z</time>
      </trkpt>
      <trkpt lat="51.196969328073" lon="4.514331580986">
        <ele>0.2</ele>
        <time>2019-05-19T12:37:31Z</time>
      </trkpt>
      <trkpt lat="51.197021631129" lon="4.514736678213">
        <ele>2.4</ele>
        <time>2019-05-19T12:37:39Z</time>
      </trkpt>
      <trkpt lat="51.197546338069" lon="4.514656379611">
        <ele>0</ele>
        <time>2019-05-19T12:37:57Z</time>
      </trkpt>
      <trkpt lat="51.197665361049" lon="4.514234350946">
        <ele>0</ele>
        <time>2019-05-19T12:38:09Z</time>
      </trkpt>
      <trkpt lat="51.197563101869" lon="4.514357648695">
        <ele>0</ele>
        <time>2019-05-19T13:07:56Z</time>
      </trkpt>
      <trkpt lat="51.197513732478" lon="4.514428224293">
        <ele>1.8</ele>
        <time>2019-05-19T13:08:02Z</time>
      </trkpt>
      <trkpt lat="51.196990953375" lon="4.514712538341">
        <ele>5</ele>
        <time>2019-05-19T13:08:23Z</time>
      </trkpt>
      <trkpt lat="51.197121962472" lon="4.515516865465">
        <ele>5.8</ele>
        <time>2019-05-19T13:08:39Z</time>
      </trkpt>
      <trkpt lat="51.1973325158" lon="4.515926991832">
        <ele>4.2</ele>
        <time>2019-05-19T13:08:54Z</time>
      </trkpt>
      <trkpt lat="51.197171415682" lon="4.515911904412">
        <ele>3.8</ele>
        <time>2019-05-19T13:09:01Z</time>
      </trkpt>
      <trkpt lat="51.19723528576" lon="4.516787561505">
        <ele>2.6</ele>
        <time>2019-05-19T13:09:15Z</time>
      </trkpt>
      <trkpt lat="51.197232184457" lon="4.516864842623">
        <ele>2.4</ele>
        <time>2019-05-19T13:09:16Z</time>
      </trkpt>
      <trkpt lat="51.197285325703" lon="4.517766818882">
        <ele>0.8</ele>
        <time>2019-05-19T13:09:30Z</time>
      </trkpt>
      <trkpt lat="51.197479031412" lon="4.518622862329">
        <ele>1.2</ele>
        <time>2019-05-19T13:09:45Z</time>
      </trkpt>
      <trkpt lat="51.197642897557" lon="4.519488209685">
        <ele>0</ele>
        <time>2019-05-19T13:10:01Z</time>
      </trkpt>
      <trkpt lat="51.197795699594" lon="4.520344169313">
        <ele>0</ele>
        <time>2019-05-19T13:10:15Z</time>
      </trkpt>
      <trkpt lat="51.197914052022" lon="4.521212869429">
        <ele>0</ele>
        <time>2019-05-19T13:10:30Z</time>
      </trkpt>
      <trkpt lat="51.198084036954" lon="4.522033625077">
        <ele>0</ele>
        <time>2019-05-19T13:10:45Z</time>
      </trkpt>
      <trkpt lat="51.198127790472" lon="4.522154408256">
        <ele>0</ele>
        <time>2019-05-19T13:11:00Z</time>
      </trkpt>
      <trkpt lat="51.198094514329" lon="4.522746589491">
        <ele>0</ele>
        <time>2019-05-19T13:11:27Z</time>
      </trkpt>
      <trkpt lat="51.198102309496" lon="4.522741057437">
        <ele>0</ele>
        <time>2019-05-19T13:11:45Z</time>
      </trkpt>
      <trkpt lat="51.198107338636" lon="4.522779781815">
        <ele>0</ele>
        <time>2019-05-19T13:11:50Z</time>
      </trkpt>
      <trkpt lat="51.198111781043" lon="4.523003578545">
        <ele>0</ele>
        <time>2019-05-19T13:12:02Z</time>
      </trkpt>
      <trkpt lat="51.198129215395" lon="4.523761637581">
        <ele>0</ele>
        <time>2019-05-19T13:12:29Z</time>
      </trkpt>
      <trkpt lat="51.198200629183" lon="4.523941513155">
        <ele>0</ele>
        <time>2019-05-19T13:12:49Z</time>
      </trkpt>
      <trkpt lat="51.198206999427" lon="4.523963473733">
        <ele>0</ele>
        <time>2019-05-19T13:12:52Z</time>
      </trkpt>
      <trkpt lat="51.198210855101" lon="4.524030193657">
        <ele>0</ele>
        <time>2019-05-19T13:12:57Z</time>
      </trkpt>
      <trkpt lat="51.198290231694" lon="4.524236388397">
        <ele>0</ele>
        <time>2019-05-19T13:13:07Z</time>
      </trkpt>
      <trkpt lat="51.198175567302" lon="4.524270335092">
        <ele>0</ele>
        <time>2019-05-19T13:13:23Z</time>
      </trkpt>
      <trkpt lat="51.198134160716" lon="4.524412911211">
        <ele>0</ele>
        <time>2019-05-19T13:13:32Z</time>
      </trkpt>
      <trkpt lat="51.198129131576" lon="4.524520031893">
        <ele>0</ele>
        <time>2019-05-19T13:13:53Z</time>
      </trkpt>
      <trkpt lat="51.198121923142" lon="4.524558337176">
        <ele>0</ele>
        <time>2019-05-19T13:13:55Z</time>
      </trkpt>
      <trkpt lat="51.19809778327" lon="4.524986149352">
        <ele>0</ele>
        <time>2019-05-19T13:14:13Z</time>
      </trkpt>
      <trkpt lat="51.198073056665" lon="4.525121852313">
        <ele>2.4</ele>
        <time>2019-05-19T13:14:41Z</time>
      </trkpt>
      <trkpt lat="51.197937772799" lon="4.525982757262">
        <ele>0</ele>
        <time>2019-05-19T13:15:04Z</time>
      </trkpt>
      <trkpt lat="51.197853450885" lon="4.52685631888">
        <ele>0</ele>
        <time>2019-05-19T13:15:18Z</time>
      </trkpt>
      <trkpt lat="51.197766530582" lon="4.527725438091">
        <ele>0</ele>
        <time>2019-05-19T13:15:42Z</time>
      </trkpt>
      <trkpt lat="51.197601490971" lon="4.528553737449">
        <ele>0</ele>
        <time>2019-05-19T13:16:05Z</time>
      </trkpt>
      <trkpt lat="51.197512894288" lon="4.529430819465">
        <ele>0</ele>
        <time>2019-05-19T13:16:31Z</time>
      </trkpt>
      <trkpt lat="51.197349614876" lon="4.530280576487">
        <ele>0</ele>
        <time>2019-05-19T13:16:48Z</time>
      </trkpt>
      <trkpt lat="51.197200417056" lon="4.531137877219">
        <ele>0</ele>
        <time>2019-05-19T13:17:03Z</time>
      </trkpt>
      <trkpt lat="51.197054152901" lon="4.531997441064">
        <ele>0</ele>
        <time>2019-05-19T13:17:18Z</time>
      </trkpt>
      <trkpt lat="51.196901183226" lon="4.532876870012">
        <ele>0</ele>
        <time>2019-05-19T13:17:33Z</time>
      </trkpt>
      <trkpt lat="51.196718625444" lon="4.533744648119">
        <ele>0</ele>
        <time>2019-05-19T13:17:48Z</time>
      </trkpt>
      <trkpt lat="51.19652869159" lon="4.534603373774">
        <ele>0</ele>
        <time>2019-05-19T13:18:02Z</time>
      </trkpt>
      <trkpt lat="51.196288466336" lon="4.535392613478">
        <ele>0</ele>
        <time>2019-05-19T13:18:17Z</time>
      </trkpt>
      <trkpt lat="51.196012282731" lon="4.536140362777">
        <ele>0.2</ele>
        <time>2019-05-19T13:18:34Z</time>
      </trkpt>
      <trkpt lat="51.195707684485" lon="4.536921891133">
        <ele>0.2</ele>
        <time>2019-05-19T13:18:50Z</time>
      </trkpt>
      <trkpt lat="51.195349944993" lon="4.537630748416">
        <ele>0</ele>
        <time>2019-05-19T13:19:04Z</time>
      </trkpt>
      <trkpt lat="51.194850719029" lon="4.538561977506">
        <ele>0</ele>
        <time>2019-05-19T13:19:24Z</time>
      </trkpt>
      <trkpt lat="51.19447847885" lon="4.539204114865">
        <ele>2</ele>
        <time>2019-05-19T13:19:36Z</time>
      </trkpt>
      <trkpt lat="51.194247389867" lon="4.5396202762">
        <ele>3</ele>
        <time>2019-05-19T13:19:44Z</time>
      </trkpt>
      <trkpt lat="51.194241773994" lon="4.539749022184">
        <ele>2.6</ele>
        <time>2019-05-19T13:19:46Z</time>
      </trkpt>
      <trkpt lat="51.194288544996" lon="4.539872906666">
        <ele>2.4</ele>
        <time>2019-05-19T13:19:48Z</time>
      </trkpt>
      <trkpt lat="51.194590628672" lon="4.540621326517">
        <ele>1.4</ele>
        <time>2019-05-19T13:20:02Z</time>
      </trkpt>
      <trkpt lat="51.194883240801" lon="4.541407716375">
        <ele>0.8</ele>
        <time>2019-05-19T13:20:18Z</time>
      </trkpt>
      <trkpt lat="51.195199741345" lon="4.542134510924">
        <ele>1.2</ele>
        <time>2019-05-19T13:20:32Z</time>
      </trkpt>
      <trkpt lat="51.195433093441" lon="4.542613787966">
        <ele>1</ele>
        <time>2019-05-19T13:20:41Z</time>
      </trkpt>
      <trkpt lat="51.195787815449" lon="4.543335469556">
        <ele>0.6</ele>
        <time>2019-05-19T13:20:56Z</time>
      </trkpt>
      <trkpt lat="51.196143291828" lon="4.544004680452">
        <ele>1.4</ele>
        <time>2019-05-19T13:21:11Z</time>
      </trkpt>
      <trkpt lat="51.196551071263" lon="4.544592754556">
        <ele>1.6</ele>
        <time>2019-05-19T13:21:24Z</time>
      </trkpt>
      <trkpt lat="51.196786770291" lon="4.544912104946">
        <ele>1.4</ele>
        <time>2019-05-19T13:21:31Z</time>
      </trkpt>
      <trkpt lat="51.197202931626" lon="4.545471848228">
        <ele>1.6</ele>
        <time>2019-05-19T13:21:44Z</time>
      </trkpt>
      <trkpt lat="51.197402504665" lon="4.545688939438">
        <ele>1.6</ele>
        <time>2019-05-19T13:21:50Z</time>
      </trkpt>
      <trkpt lat="51.197468134942" lon="4.545770830601">
        <ele>1.4</ele>
        <time>2019-05-19T13:21:52Z</time>
      </trkpt>
      <trkpt lat="51.197936683152" lon="4.546244743227">
        <ele>1.6</ele>
        <time>2019-05-19T13:22:06Z</time>
      </trkpt>
      <trkpt lat="51.197971719494" lon="4.546273576963">
        <ele>1.4</ele>
        <time>2019-05-19T13:22:07Z</time>
      </trkpt>
      <trkpt lat="51.198035673391" lon="4.546349516977">
        <ele>1.4</ele>
        <time>2019-05-19T13:22:09Z</time>
      </trkpt>
      <trkpt lat="51.198499527737" lon="4.546791159288">
        <ele>1.4</ele>
        <time>2019-05-19T13:22:23Z</time>
      </trkpt>
      <trkpt lat="51.198767580899" lon="4.546987379567">
        <ele>1.6</ele>
        <time>2019-05-19T13:22:30Z</time>
      </trkpt>
      <trkpt lat="51.199266052492" lon="4.547364984162">
        <ele>2.8</ele>
        <time>2019-05-19T13:22:44Z</time>
      </trkpt>
      <trkpt lat="51.19973141558" lon="4.547801429695">
        <ele>2.6</ele>
        <time>2019-05-19T13:22:59Z</time>
      </trkpt>
      <trkpt lat="51.199781623161" lon="4.548642972455">
        <ele>2</ele>
        <time>2019-05-19T13:23:13Z</time>
      </trkpt>
      <trkpt lat="51.19973728291" lon="4.549516953168">
        <ele>2</ele>
        <time>2019-05-19T13:23:27Z</time>
      </trkpt>
      <trkpt lat="51.199953033016" lon="4.550159006708">
        <ele>2.8</ele>
        <time>2019-05-19T13:23:42Z</time>
      </trkpt>
      <trkpt lat="51.200517470162" lon="4.550155402491">
        <ele>4.4</ele>
        <time>2019-05-19T13:23:58Z</time>
      </trkpt>
      <trkpt lat="51.20109766528" lon="4.550133777189">
        <ele>5.2</ele>
        <time>2019-05-19T13:24:12Z</time>
      </trkpt>
      <trkpt lat="51.201642237323" lon="4.549980053143">
        <ele>3.8</ele>
        <time>2019-05-19T13:24:26Z</time>
      </trkpt>
      <trkpt lat="51.201804427088" lon="4.549151083233">
        <ele>2</ele>
        <time>2019-05-19T13:24:39Z</time>
      </trkpt>
      <trkpt lat="51.201874164496" lon="4.548889400315">
        <ele>2</ele>
        <time>2019-05-19T13:24:43Z</time>
      </trkpt>
      <trkpt lat="51.202050435853" lon="4.548118600791">
        <ele>1.6</ele>
        <time>2019-05-19T13:24:56Z</time>
      </trkpt>
      <trkpt lat="51.202092848267" lon="4.547845183213">
        <ele>2.2</ele>
        <time>2019-05-19T13:25:00Z</time>
      </trkpt>
      <trkpt lat="51.202364421827" lon="4.547074048413">
        <ele>1.6</ele>
        <time>2019-05-19T13:25:13Z</time>
      </trkpt>
      <trkpt lat="51.202418485082" lon="4.546979165305">
        <ele>2</ele>
        <time>2019-05-19T13:25:15Z</time>
      </trkpt>
      <trkpt lat="51.202922237272" lon="4.546583204349">
        <ele>1</ele>
        <time>2019-05-19T13:25:30Z</time>
      </trkpt>
      <trkpt lat="51.203451805714" lon="4.546431911054">
        <ele>3.8</ele>
        <time>2019-05-19T13:25:48Z</time>
      </trkpt>
      <trkpt lat="51.203998054137" lon="4.546323784544">
        <ele>3.6</ele>
        <time>2019-05-19T13:26:11Z</time>
      </trkpt>
      <trkpt lat="51.204529885692" lon="4.546182968624">
        <ele>3.4</ele>
        <time>2019-05-19T13:26:30Z</time>
      </trkpt>
      <trkpt lat="51.205064483274" lon="4.546445238275">
        <ele>3.6</ele>
        <time>2019-05-19T13:26:51Z</time>
      </trkpt>
      <trkpt lat="51.20509080244" lon="4.546450351234">
        <ele>3.8</ele>
        <time>2019-05-19T13:26:52Z</time>
      </trkpt>
      <trkpt lat="51.205143273134" lon="4.546444064809">
        <ele>3.8</ele>
        <time>2019-05-19T13:26:54Z</time>
      </trkpt>
      <trkpt lat="51.205220470433" lon="4.546479855522">
        <ele>3.8</ele>
        <time>2019-05-19T13:26:57Z</time>
      </trkpt>
      <trkpt lat="51.205273276403" lon="4.546489327069">
        <ele>4</ele>
        <time>2019-05-19T13:26:59Z</time>
      </trkpt>
      <trkpt lat="51.205826314165" lon="4.546572056422">
        <ele>4.2</ele>
        <time>2019-05-19T13:27:17Z</time>
      </trkpt>
      <trkpt lat="51.206366443801" lon="4.546569374214">
        <ele>3.6</ele>
        <time>2019-05-19T13:27:33Z</time>
      </trkpt>
      <trkpt lat="51.206917469907" lon="4.546542384496">
        <ele>3.6</ele>
        <time>2019-05-19T13:27:50Z</time>
      </trkpt>
      <trkpt lat="51.207470340031" lon="4.5465353437">
        <ele>5</ele>
        <time>2019-05-19T13:28:07Z</time>
      </trkpt>
      <trkpt lat="51.207981468293" lon="4.546358066515">
        <ele>4</ele>
        <time>2019-05-19T13:28:24Z</time>
      </trkpt>
      <trkpt lat="51.208069394424" lon="4.546181878977">
        <ele>1.2</ele>
        <time>2019-05-19T13:28:50Z</time>
      </trkpt>
      <trkpt lat="51.208497709514" lon="4.545633786536">
        <ele>0.8</ele>
        <time>2019-05-19T13:29:11Z</time>
      </trkpt>
      <trkpt lat="51.208926192242" lon="4.545066415725">
        <ele>2.6</ele>
        <time>2019-05-19T13:29:29Z</time>
      </trkpt>
      <trkpt lat="51.209347382717" lon="4.544523352424">
        <ele>3.4</ele>
        <time>2019-05-19T13:29:45Z</time>
      </trkpt>
      <trkpt lat="51.209673270989" lon="4.543812818761">
        <ele>6.2</ele>
        <time>2019-05-19T13:30:00Z</time>
      </trkpt>
      <trkpt lat="51.209574113112" lon="4.54291855385">
        <ele>6</ele>
        <time>2019-05-19T13:30:15Z</time>
      </trkpt>
      <trkpt lat="51.209388370208" lon="4.542082459325">
        <ele>3.8</ele>
        <time>2019-05-19T13:30:32Z</time>
      </trkpt>
      <trkpt lat="51.20920715353" lon="4.541260697849">
        <ele>1.6</ele>
        <time>2019-05-19T13:30:47Z</time>
      </trkpt>
      <trkpt lat="51.209025433938" lon="4.540429548645">
        <ele>0.8</ele>
        <time>2019-05-19T13:31:04Z</time>
      </trkpt>
      <trkpt lat="51.20896407843" lon="4.540333240614">
        <ele>0.6</ele>
        <time>2019-05-19T13:31:06Z</time>
      </trkpt>
      <trkpt lat="51.208787052702" lon="4.540118915431">
        <ele>0.4</ele>
        <time>2019-05-19T13:31:11Z</time>
      </trkpt>
      <trkpt lat="51.208496619867" lon="4.539330011003">
        <ele>0</ele>
        <time>2019-05-19T13:31:24Z</time>
      </trkpt>
      <trkpt lat="51.208295035172" lon="4.538513781581">
        <ele>0</ele>
        <time>2019-05-19T13:31:38Z</time>
      </trkpt>
      <trkpt lat="51.207908964858" lon="4.537878098285">
        <ele>0</ele>
        <time>2019-05-19T13:31:53Z</time>
      </trkpt>
      <trkpt lat="51.207553572298" lon="4.53747702437">
        <ele>0</ele>
        <time>2019-05-19T13:32:04Z</time>
      </trkpt>
      <trkpt lat="51.207112013806" lon="4.537284659765">
        <ele>0</ele>
        <time>2019-05-19T13:32:14Z</time>
      </trkpt>
      <trkpt lat="51.206576158939" lon="4.536981570261">
        <ele>1</ele>
        <time>2019-05-19T13:32:29Z</time>
      </trkpt>
      <trkpt lat="51.206061677917" lon="4.536641684216">
        <ele>0.2</ele>
        <time>2019-05-19T13:32:43Z</time>
      </trkpt>
      <trkpt lat="51.206025216652" lon="4.536620478009">
        <ele>0</ele>
        <time>2019-05-19T13:32:44Z</time>
      </trkpt>
      <trkpt lat="51.205860009403" lon="4.536562307623">
        <ele>0</ele>
        <time>2019-05-19T13:32:48Z</time>
      </trkpt>
      <trkpt lat="51.205332955531" lon="4.536723156284">
        <ele>0.6</ele>
        <time>2019-05-19T13:33:01Z</time>
      </trkpt>
      <trkpt lat="51.2047840249" lon="4.536879813995">
        <ele>0</ele>
        <time>2019-05-19T13:33:16Z</time>
      </trkpt>
      <trkpt lat="51.204236183916" lon="4.536974194189">
        <ele>0</ele>
        <time>2019-05-19T13:33:30Z</time>
      </trkpt>
      <trkpt lat="51.204123363542" lon="4.536988946333">
        <ele>0</ele>
        <time>2019-05-19T13:33:39Z</time>
      </trkpt>
      <trkpt lat="51.203548449021" lon="4.53697411037">
        <ele>0.4</ele>
        <time>2019-05-19T13:33:57Z</time>
      </trkpt>
      <trkpt lat="51.203059448975" lon="4.536608072797">
        <ele>0.2</ele>
        <time>2019-05-19T13:34:13Z</time>
      </trkpt>
      <trkpt lat="51.20285451152" lon="4.536337337427">
        <ele>0.2</ele>
        <time>2019-05-19T13:34:29Z</time>
      </trkpt>
      <trkpt lat="51.202443546963" lon="4.535788742072">
        <ele>2</ele>
        <time>2019-05-19T13:34:46Z</time>
      </trkpt>
      <trkpt lat="51.202068792214" lon="4.53559864058">
        <ele>0</ele>
        <time>2019-05-19T13:35:03Z</time>
      </trkpt>
      <trkpt lat="51.201652630879" lon="4.535082734635">
        <ele>0.6</ele>
        <time>2019-05-19T13:35:25Z</time>
      </trkpt>
      <trkpt lat="51.201202355211" lon="4.534961951456">
        <ele>0</ele>
        <time>2019-05-19T13:35:40Z</time>
      </trkpt>
      <trkpt lat="51.200828773928" lon="4.535119950271">
        <ele>0</ele>
        <time>2019-05-19T13:35:50Z</time>
      </trkpt>
      <trkpt lat="51.200780997098" lon="4.535014505969">
        <ele>0</ele>
        <time>2019-05-19T13:35:52Z</time>
      </trkpt>
      <trkpt lat="51.200455947016" lon="4.534269774154">
        <ele>0</ele>
        <time>2019-05-19T13:36:06Z</time>
      </trkpt>
      <trkpt lat="51.200067110675" lon="4.533604754208">
        <ele>0</ele>
        <time>2019-05-19T13:36:20Z</time>
      </trkpt>
      <trkpt lat="51.199701324559" lon="4.532951888017">
        <ele>0</ele>
        <time>2019-05-19T13:36:33Z</time>
      </trkpt>
      <trkpt lat="51.199293209848" lon="4.532352414529">
        <ele>0</ele>
        <time>2019-05-19T13:36:47Z</time>
      </trkpt>
      <trkpt lat="51.199081734511" lon="4.531603575583">
        <ele>0</ele>
        <time>2019-05-19T13:37:03Z</time>
      </trkpt>
      <trkpt lat="51.199134875757" lon="4.531085993258">
        <ele>0</ele>
        <time>2019-05-19T13:37:13Z</time>
      </trkpt>
      <trkpt lat="51.198698430224" lon="4.530516778429">
        <ele>5</ele>
        <time>2019-05-19T13:37:26Z</time>
      </trkpt>
      <trkpt lat="51.198305402933" lon="4.52990146315">
        <ele>6</ele>
        <time>2019-05-19T13:37:39Z</time>
      </trkpt>
      <trkpt lat="51.198123348065" lon="4.529611533229">
        <ele>4</ele>
        <time>2019-05-19T13:37:45Z</time>
      </trkpt>
      <trkpt lat="51.198047910965" lon="4.529522098356">
        <ele>4.2</ele>
        <time>2019-05-19T13:37:47Z</time>
      </trkpt>
      <trkpt lat="51.197659912814" lon="4.528864705939">
        <ele>2.6</ele>
        <time>2019-05-19T13:38:00Z</time>
      </trkpt>
      <trkpt lat="51.197786395685" lon="4.528039424065">
        <ele>1.2</ele>
        <time>2019-05-19T13:38:15Z</time>
      </trkpt>
      <trkpt lat="51.19798043667" lon="4.527180530772">
        <ele>0</ele>
        <time>2019-05-19T13:38:29Z</time>
      </trkpt>
      <trkpt lat="51.19825368661" lon="4.526463794503">
        <ele>0</ele>
        <time>2019-05-19T13:38:44Z</time>
      </trkpt>
      <trkpt lat="51.198760623922" lon="4.526179648093">
        <ele>4.6</ele>
        <time>2019-05-19T13:39:01Z</time>
      </trkpt>
      <trkpt lat="51.199287091061" lon="4.525940428667">
        <ele>0.8</ele>
        <time>2019-05-19T13:39:16Z</time>
      </trkpt>
      <trkpt lat="51.1998051763" lon="4.525648654728">
        <ele>0</ele>
        <time>2019-05-19T13:39:32Z</time>
      </trkpt>
      <trkpt lat="51.200342372271" lon="4.525320419524">
        <ele>2.8</ele>
        <time>2019-05-19T13:39:49Z</time>
      </trkpt>
      <trkpt lat="51.20088141226" lon="4.525097460984">
        <ele>10.8</ele>
        <time>2019-05-19T13:40:02Z</time>
      </trkpt>
      <trkpt lat="51.201684817375" lon="4.524333618437">
        <ele>16.4</ele>
        <time>2019-05-19T13:40:27Z</time>
      </trkpt>
      <trkpt lat="51.202110366438" lon="4.524157011804">
        <ele>7.8</ele>
        <time>2019-05-19T13:40:38Z</time>
      </trkpt>
      <trkpt lat="51.202471123414" lon="4.523505738174">
        <ele>6.6</ele>
        <time>2019-05-19T13:40:56Z</time>
      </trkpt>
      <trkpt lat="51.202959201451" lon="4.523035094489">
        <ele>14</ele>
        <time>2019-05-19T13:41:12Z</time>
      </trkpt>
      <trkpt lat="51.203164474182" lon="4.522582220432">
        <ele>12.4</ele>
        <time>2019-05-19T13:41:25Z</time>
      </trkpt>
      <trkpt lat="51.202878399935" lon="4.522528073358">
        <ele>3.8</ele>
        <time>2019-05-19T13:41:35Z</time>
      </trkpt>
      <trkpt lat="51.202351848977" lon="4.522207884778">
        <ele>9.4</ele>
        <time>2019-05-19T13:41:52Z</time>
      </trkpt>
      <trkpt lat="51.201820771793" lon="4.521876883547">
        <ele>19.2</ele>
        <time>2019-05-19T13:42:09Z</time>
      </trkpt>
      <trkpt lat="51.201307715694" lon="4.521445467154">
        <ele>5.4</ele>
        <time>2019-05-19T13:42:24Z</time>
      </trkpt>
      <trkpt lat="51.200931033108" lon="4.520834175187">
        <ele>2.6</ele>
        <time>2019-05-19T13:42:39Z</time>
      </trkpt>
      <trkpt lat="51.200536413256" lon="4.52023880883">
        <ele>0.8</ele>
        <time>2019-05-19T13:42:55Z</time>
      </trkpt>
      <trkpt lat="51.200504813493" lon="4.520179632616">
        <ele>0.6</ele>
        <time>2019-05-19T13:43:00Z</time>
      </trkpt>
      <trkpt lat="51.200475979757" lon="4.520212405845">
        <ele>0.6</ele>
        <time>2019-05-19T13:43:28Z</time>
      </trkpt>
      <trkpt lat="51.200440691958" lon="4.520152894355">
        <ele>0</ele>
        <time>2019-05-19T13:43:35Z</time>
      </trkpt>
      <trkpt lat="51.200099548628" lon="4.519467003478">
        <ele>0</ele>
        <time>2019-05-19T13:43:55Z</time>
      </trkpt>
      <trkpt lat="51.199768128302" lon="4.518771054321">
        <ele>0</ele>
        <time>2019-05-19T13:44:10Z</time>
      </trkpt>
      <trkpt lat="51.199388009137" lon="4.518143417649">
        <ele>0</ele>
        <time>2019-05-19T13:44:23Z</time>
      </trkpt>
      <trkpt lat="51.199059941571" lon="4.517433889814">
        <ele>0</ele>
        <time>2019-05-19T13:44:36Z</time>
      </trkpt>
      <trkpt lat="51.198692311437" lon="4.516739281761">
        <ele>0.6</ele>
        <time>2019-05-19T13:44:50Z</time>
      </trkpt>
      <trkpt lat="51.198441608808" lon="4.516286240066">
        <ele>0.4</ele>
        <time>2019-05-19T13:44:59Z</time>
      </trkpt>
      <trkpt lat="51.198302636906" lon="4.516133689486">
        <ele>0.6</ele>
        <time>2019-05-19T13:45:03Z</time>
      </trkpt>
      <trkpt lat="51.198080600375" lon="4.51598248001">
        <ele>1.2</ele>
        <time>2019-05-19T13:45:09Z</time>
      </trkpt>
      <trkpt lat="51.197573160149" lon="4.515647539286">
        <ele>2</ele>
        <time>2019-05-19T13:45:21Z</time>
      </trkpt>
      <trkpt lat="51.197265125324" lon="4.515487193539">
        <ele>5</ele>
        <time>2019-05-19T13:45:28Z</time>
      </trkpt>
      <trkpt lat="51.197146269982" lon="4.515402955444">
        <ele>5.8</ele>
        <time>2019-05-19T13:45:31Z</time>
      </trkpt>
      <trkpt lat="51.197082818999" lon="4.51529684059">
        <ele>5.4</ele>
        <time>2019-05-19T13:45:33Z</time>
      </trkpt>
      <trkpt lat="51.19705088396" lon="4.515159293611">
        <ele>5.4</ele>
        <time>2019-05-19T13:45:35Z</time>
      </trkpt>
      <trkpt lat="51.196971004453" lon="4.514270309297">
        <ele>3</ele>
        <time>2019-05-19T13:45:48Z</time>
      </trkpt>
      <trkpt lat="51.196881821037" lon="4.513387024675">
        <ele>2.8</ele>
        <time>2019-05-19T13:46:04Z</time>
      </trkpt>
      <trkpt lat="51.19674075366" lon="4.512495190515">
        <ele>3</ele>
        <time>2019-05-19T13:46:18Z</time>
      </trkpt>
      <trkpt lat="51.196604044871" lon="4.511629591702">
        <ele>1.8</ele>
        <time>2019-05-19T13:46:34Z</time>
      </trkpt>
      <trkpt lat="51.196564566122" lon="4.510757455007">
        <ele>0.2</ele>
        <time>2019-05-19T13:46:49Z</time>
      </trkpt>
      <trkpt lat="51.196527937219" lon="4.509883977208">
        <ele>1.8</ele>
        <time>2019-05-19T13:47:03Z</time>
      </trkpt>
      <trkpt lat="51.196456523431" lon="4.508983258234">
        <ele>2</ele>
        <time>2019-05-19T13:47:17Z</time>
      </trkpt>
      <trkpt lat="51.196355772993" lon="4.508075330826">
        <ele>2.8</ele>
        <time>2019-05-19T13:47:31Z</time>
      </trkpt>
      <trkpt lat="51.196328280361" lon="4.507801997067">
        <ele>2.6</ele>
        <time>2019-05-19T13:47:35Z</time>
      </trkpt>
      <trkpt lat="51.196201210757" lon="4.506958023556">
        <ele>2.2</ele>
        <time>2019-05-19T13:47:47Z</time>
      </trkpt>
      <trkpt lat="51.196199031463" lon="4.50689230946">
        <ele>2.4</ele>
        <time>2019-05-19T13:47:48Z</time>
      </trkpt>
      <trkpt lat="51.196173634306" lon="4.505998463644">
        <ele>4.2</ele>
        <time>2019-05-19T13:48:04Z</time>
      </trkpt>
      <trkpt lat="51.19612887496" lon="4.505140408541">
        <ele>5.2</ele>
        <time>2019-05-19T13:48:18Z</time>
      </trkpt>
      <trkpt lat="51.196029549445" lon="4.504250669856">
        <ele>6</ele>
        <time>2019-05-19T13:48:33Z</time>
      </trkpt>
      <trkpt lat="51.195930810663" lon="4.503392698572">
        <ele>4.2</ele>
        <time>2019-05-19T13:48:48Z</time>
      </trkpt>
      <trkpt lat="51.195873059372" lon="4.503147947092">
        <ele>3.2</ele>
        <time>2019-05-19T13:48:52Z</time>
      </trkpt>
      <trkpt lat="51.195824779628" lon="4.502511174149">
        <ele>2</ele>
        <time>2019-05-19T13:49:02Z</time>
      </trkpt>
      <trkpt lat="51.195834586451" lon="4.502377315206">
        <ele>2.2</ele>
        <time>2019-05-19T13:49:04Z</time>
      </trkpt>
      <trkpt lat="51.195880519263" lon="4.501499395">
        <ele>1.8</ele>
        <time>2019-05-19T13:49:19Z</time>
      </trkpt>
      <trkpt lat="51.195953944707" lon="4.500595993818">
        <ele>1</ele>
        <time>2019-05-19T13:49:35Z</time>
      </trkpt>
      <trkpt lat="51.196025945228" lon="4.500103641012">
        <ele>0</ele>
        <time>2019-05-19T13:49:43Z</time>
      </trkpt>
      <trkpt lat="51.196174388677" lon="4.499223122417">
        <ele>2.6</ele>
        <time>2019-05-19T13:49:58Z</time>
      </trkpt>
      <trkpt lat="51.196388797679" lon="4.498387279349">
        <ele>0.6</ele>
        <time>2019-05-19T13:50:15Z</time>
      </trkpt>
      <trkpt lat="51.196612678228" lon="4.497605667174">
        <ele>1.8</ele>
        <time>2019-05-19T13:50:32Z</time>
      </trkpt>
      <trkpt lat="51.196785513006" lon="4.496783235146">
        <ele>3.6</ele>
        <time>2019-05-19T13:50:53Z</time>
      </trkpt>
      <trkpt lat="51.197084495379" lon="4.496031713992">
        <ele>3.8</ele>
        <time>2019-05-19T13:51:09Z</time>
      </trkpt>
      <trkpt lat="51.19746830258" lon="4.495378177249">
        <ele>3.2</ele>
        <time>2019-05-19T13:51:25Z</time>
      </trkpt>
      <trkpt lat="51.197820593837" lon="4.494694717123">
        <ele>3.4</ele>
        <time>2019-05-19T13:51:41Z</time>
      </trkpt>
      <trkpt lat="51.198131562327" lon="4.493963061072">
        <ele>6</ele>
        <time>2019-05-19T13:51:56Z</time>
      </trkpt>
      <trkpt lat="51.198437166401" lon="4.493229225727">
        <ele>3.6</ele>
        <time>2019-05-19T13:52:10Z</time>
      </trkpt>
      <trkpt lat="51.198729275616" lon="4.49248382336">
        <ele>3.4</ele>
        <time>2019-05-19T13:52:25Z</time>
      </trkpt>
      <trkpt lat="51.199039489735" lon="4.491719813175">
        <ele>6</ele>
        <time>2019-05-19T13:52:40Z</time>
      </trkpt>
      <trkpt lat="51.199337969194" lon="4.490972734428">
        <ele>6.8</ele>
        <time>2019-05-19T13:52:54Z</time>
      </trkpt>
      <trkpt lat="51.199706688975" lon="4.490344091928">
        <ele>6.4</ele>
        <time>2019-05-19T13:53:09Z</time>
      </trkpt>
      <trkpt lat="51.200079432068" lon="4.489670354806">
        <ele>7</ele>
        <time>2019-05-19T13:53:23Z</time>
      </trkpt>
      <trkpt lat="51.20047153735" lon="4.489054704251">
        <ele>5.2</ele>
        <time>2019-05-19T13:53:36Z</time>
      </trkpt>
      <trkpt lat="51.200805304608" lon="4.488373423419">
        <ele>1.2</ele>
        <time>2019-05-19T13:53:50Z</time>
      </trkpt>
      <trkpt lat="51.201160864806" lon="4.487722987979">
        <ele>0.8</ele>
        <time>2019-05-19T13:54:04Z</time>
      </trkpt>
      <trkpt lat="51.201477784445" lon="4.487007844271">
        <ele>3.8</ele>
        <time>2019-05-19T13:54:17Z</time>
      </trkpt>
      <trkpt lat="51.201886066794" lon="4.486375849011">
        <ele>3.8</ele>
        <time>2019-05-19T13:54:32Z</time>
      </trkpt>
      <trkpt lat="51.202312789323" lon="4.485813674978">
        <ele>0</ele>
        <time>2019-05-19T13:54:46Z</time>
      </trkpt>
      <trkpt lat="51.202542537202" lon="4.485643857684">
        <ele>2.8</ele>
        <time>2019-05-19T13:54:57Z</time>
      </trkpt>
      <trkpt lat="51.202546644333" lon="4.48565341305">
        <ele>1.8</ele>
        <time>2019-05-19T13:55:43Z</time>
      </trkpt>
      <trkpt lat="51.202562486124" lon="4.485639080001">
        <ele>2.8</ele>
        <time>2019-05-19T13:55:48Z</time>
      </trkpt>
      <trkpt lat="51.202586039263" lon="4.485615107767">
        <ele>3.4</ele>
        <time>2019-05-19T13:55:51Z</time>
      </trkpt>
      <trkpt lat="51.202935899769" lon="4.484906334303">
        <ele>3</ele>
        <time>2019-05-19T13:56:14Z</time>
      </trkpt>
      <trkpt lat="51.203411237318" lon="4.484429571831">
        <ele>0.4</ele>
        <time>2019-05-19T13:56:30Z</time>
      </trkpt>
      <trkpt lat="51.203854975104" lon="4.48389489043">
        <ele>0</ele>
        <time>2019-05-19T13:56:45Z</time>
      </trkpt>
      <trkpt lat="51.204314554681" lon="4.483361885409">
        <ele>0</ele>
        <time>2019-05-19T13:57:01Z</time>
      </trkpt>
      <trkpt lat="51.204768015471" lon="4.482832652243">
        <ele>1.2</ele>
        <time>2019-05-19T13:57:19Z</time>
      </trkpt>
      <trkpt lat="51.205217201492" lon="4.482327642768">
        <ele>0</ele>
        <time>2019-05-19T13:57:35Z</time>
      </trkpt>
      <trkpt lat="51.205668063893" lon="4.481769492047">
        <ele>2.8</ele>
        <time>2019-05-19T13:57:51Z</time>
      </trkpt>
      <trkpt lat="51.206124961262" lon="4.481276049594">
        <ele>0.6</ele>
        <time>2019-05-19T13:58:10Z</time>
      </trkpt>
      <trkpt lat="51.206558054035" lon="4.480746816428">
        <ele>1.6</ele>
        <time>2019-05-19T13:58:26Z</time>
      </trkpt>
      <trkpt lat="51.207003719658" lon="4.480195287408">
        <ele>4</ele>
        <time>2019-05-19T13:58:41Z</time>
      </trkpt>
      <trkpt lat="51.207444942874" lon="4.479683404775">
        <ele>0.8</ele>
        <time>2019-05-19T13:58:56Z</time>
      </trkpt>
      <trkpt lat="51.207870156661" lon="4.479109831358">
        <ele>0</ele>
        <time>2019-05-19T13:59:14Z</time>
      </trkpt>
      <trkpt lat="51.208199816788" lon="4.478417989332">
        <ele>0</ele>
        <time>2019-05-19T13:59:28Z</time>
      </trkpt>
      <trkpt lat="51.20840081475" lon="4.477611399095">
        <ele>0</ele>
        <time>2019-05-19T13:59:41Z</time>
      </trkpt>
      <trkpt lat="51.208498128609" lon="4.47671160213">
        <ele>1.6</ele>
        <time>2019-05-19T13:59:57Z</time>
      </trkpt>
      <trkpt lat="51.208625030575" lon="4.475838291969">
        <ele>2.6</ele>
        <time>2019-05-19T14:00:11Z</time>
      </trkpt>
      <trkpt lat="51.208751429627" lon="4.474946290171">
        <ele>4.2</ele>
        <time>2019-05-19T14:00:26Z</time>
      </trkpt>
      <trkpt lat="51.208838685206" lon="4.47404783431">
        <ele>4.6</ele>
        <time>2019-05-19T14:00:41Z</time>
      </trkpt>
      <trkpt lat="51.208908254976" lon="4.473670313534">
        <ele>4.4</ele>
        <time>2019-05-19T14:00:47Z</time>
      </trkpt>
      <trkpt lat="51.209055944054" lon="4.473035971342">
        <ele>4.4</ele>
        <time>2019-05-19T14:00:59Z</time>
      </trkpt>
      <trkpt lat="51.209503956609" lon="4.473504351914">
        <ele>4.4</ele>
        <time>2019-05-19T14:01:15Z</time>
      </trkpt>
      <trkpt lat="51.209828755234" lon="4.474205581668">
        <ele>1.6</ele>
        <time>2019-05-19T14:01:31Z</time>
      </trkpt>
      <trkpt lat="51.210066465918" lon="4.475031450275">
        <ele>1.4</ele>
        <time>2019-05-19T14:01:45Z</time>
      </trkpt>
      <trkpt lat="51.210220692878" lon="4.475867628619">
        <ele>0.8</ele>
        <time>2019-05-19T14:01:58Z</time>
      </trkpt>
      <trkpt lat="51.210691420382" lon="4.477306633211">
        <ele>3.6</ele>
        <time>2019-05-19T14:02:22Z</time>
      </trkpt>
      <trkpt lat="51.210960227915" lon="4.478079276753">
        <ele>3.4</ele>
        <time>2019-05-19T14:02:36Z</time>
      </trkpt>
      <trkpt lat="51.211363984038" lon="4.478638265664">
        <ele>1.4</ele>
        <time>2019-05-19T14:02:54Z</time>
      </trkpt>
      <trkpt lat="51.211667492637" lon="4.479416357441">
        <ele>2</ele>
        <time>2019-05-19T14:03:10Z</time>
      </trkpt>
      <trkpt lat="51.212095807727" lon="4.479936202879">
        <ele>0</ele>
        <time>2019-05-19T14:03:25Z</time>
      </trkpt>
      <trkpt lat="51.212616491355" lon="4.480346748341">
        <ele>0</ele>
        <time>2019-05-19T14:03:38Z</time>
      </trkpt>
      <trkpt lat="51.213148658186" lon="4.48073575232">
        <ele>0</ele>
        <time>2019-05-19T14:03:51Z</time>
      </trkpt>
      <trkpt lat="51.213641262449" lon="4.481129869258">
        <ele>0</ele>
        <time>2019-05-19T14:04:04Z</time>
      </trkpt>
      <trkpt lat="51.214124730441" lon="4.481560782737">
        <ele>0</ele>
        <time>2019-05-19T14:04:19Z</time>
      </trkpt>
      <trkpt lat="51.21463694835" lon="4.481941488635">
        <ele>0.2</ele>
        <time>2019-05-19T14:04:40Z</time>
      </trkpt>
      <trkpt lat="51.215181185117" lon="4.48218582102">
        <ele>0.4</ele>
        <time>2019-05-19T14:04:57Z</time>
      </trkpt>
      <trkpt lat="51.215718716364" lon="4.482334851202">
        <ele>0</ele>
        <time>2019-05-19T14:05:15Z</time>
      </trkpt>
      <trkpt lat="51.216264964787" lon="4.482345160939">
        <ele>0</ele>
        <time>2019-05-19T14:05:34Z</time>
      </trkpt>
      <trkpt lat="51.216824791888" lon="4.482270645848">
        <ele>0</ele>
        <time>2019-05-19T14:05:54Z</time>
      </trkpt>
      <trkpt lat="51.217097706552" lon="4.482166207374">
        <ele>0</ele>
        <time>2019-05-19T14:06:10Z</time>
      </trkpt>
      <trkpt lat="51.217078176725" lon="4.482171990885">
        <ele>0</ele>
        <time>2019-05-19T14:06:45Z</time>
      </trkpt>
      <trkpt lat="51.217076667983" lon="4.482153802162">
        <ele>0</ele>
        <time>2019-05-19T14:06:49Z</time>
      </trkpt>
      <trkpt lat="51.217062251115" lon="4.481250987713">
        <ele>0</ele>
        <time>2019-05-19T14:07:11Z</time>
      </trkpt>
      <trkpt lat="51.217122516976" lon="4.480344149952">
        <ele>0</ele>
        <time>2019-05-19T14:07:26Z</time>
      </trkpt>
      <trkpt lat="51.217167276322" lon="4.479429433205">
        <ele>0</ele>
        <time>2019-05-19T14:07:40Z</time>
      </trkpt>
      <trkpt lat="51.217180771181" lon="4.478510441689">
        <ele>0</ele>
        <time>2019-05-19T14:07:54Z</time>
      </trkpt>
      <trkpt lat="51.217227961278" lon="4.477636796252">
        <ele>0</ele>
        <time>2019-05-19T14:08:09Z</time>
      </trkpt>
      <trkpt lat="51.217273642633" lon="4.476754182182">
        <ele>0</ele>
        <time>2019-05-19T14:08:25Z</time>
      </trkpt>
      <trkpt lat="51.217290574071" lon="4.475890092111">
        <ele>0</ele>
        <time>2019-05-19T14:08:42Z</time>
      </trkpt>
      <trkpt lat="51.217317731427" lon="4.475011501353">
        <ele>0</ele>
        <time>2019-05-19T14:08:56Z</time>
      </trkpt>
      <trkpt lat="51.217357126357" lon="4.474144561436">
        <ele>0</ele>
        <time>2019-05-19T14:09:08Z</time>
      </trkpt>
      <trkpt lat="51.217416889304" lon="4.473255828579">
        <ele>0</ele>
        <time>2019-05-19T14:09:21Z</time>
      </trkpt>
      <trkpt lat="51.217451841827" lon="4.472360222564">
        <ele>0</ele>
        <time>2019-05-19T14:09:34Z</time>
      </trkpt>
      <trkpt lat="51.217470533464" lon="4.471496216312">
        <ele>0</ele>
        <time>2019-05-19T14:09:48Z</time>
      </trkpt>
      <trkpt lat="51.217498026096" lon="4.471228246969">
        <ele>0</ele>
        <time>2019-05-19T14:09:52Z</time>
      </trkpt>
      <trkpt lat="51.217531637515" lon="4.470330629298">
        <ele>0</ele>
        <time>2019-05-19T14:10:05Z</time>
      </trkpt>
      <trkpt lat="51.217563321097" lon="4.469442064079">
        <ele>0</ele>
        <time>2019-05-19T14:10:20Z</time>
      </trkpt>
      <trkpt lat="51.217542533985" lon="4.468559701466">
        <ele>0</ele>
        <time>2019-05-19T14:10:34Z</time>
      </trkpt>
      <trkpt lat="51.217615288877" lon="4.467667867306">
        <ele>0</ele>
        <time>2019-05-19T14:10:50Z</time>
      </trkpt>
      <trkpt lat="51.217662059879" lon="4.466802436131">
        <ele>0</ele>
        <time>2019-05-19T14:11:07Z</time>
      </trkpt>
      <trkpt lat="51.217715284944" lon="4.465945303037">
        <ele>0</ele>
        <time>2019-05-19T14:11:22Z</time>
      </trkpt>
      <trkpt lat="51.217781501954" lon="4.465086242106">
        <ele>0</ele>
        <time>2019-05-19T14:11:36Z</time>
      </trkpt>
      <trkpt lat="51.217848724792" lon="4.464201448742">
        <ele>0</ele>
        <time>2019-05-19T14:11:51Z</time>
      </trkpt>
      <trkpt lat="51.217889041731" lon="4.463333670635">
        <ele>0</ele>
        <time>2019-05-19T14:12:02Z</time>
      </trkpt>
      <trkpt lat="51.217862890203" lon="4.462411410178">
        <ele>0</ele>
        <time>2019-05-19T14:12:15Z</time>
      </trkpt>
      <trkpt lat="51.217907817187" lon="4.461546649555">
        <ele>0</ele>
        <time>2019-05-19T14:12:28Z</time>
      </trkpt>
      <trkpt lat="51.217942602072" lon="4.460657413784">
        <ele>0</ele>
        <time>2019-05-19T14:12:46Z</time>
      </trkpt>
      <trkpt lat="51.217952660352" lon="4.459764909072">
        <ele>0</ele>
        <time>2019-05-19T14:13:01Z</time>
      </trkpt>
      <trkpt lat="51.218015356964" lon="4.458861004976">
        <ele>0</ele>
        <time>2019-05-19T14:13:15Z</time>
      </trkpt>
      <trkpt lat="51.218068917305" lon="4.457998088371">
        <ele>0</ele>
        <time>2019-05-19T14:13:27Z</time>
      </trkpt>
      <trkpt lat="51.21812884789" lon="4.457099129596">
        <ele>0</ele>
        <time>2019-05-19T14:13:40Z</time>
      </trkpt>
      <trkpt lat="51.218103199276" lon="4.456213498042">
        <ele>0</ele>
        <time>2019-05-19T14:13:52Z</time>
      </trkpt>
      <trkpt lat="51.218170589752" lon="4.455316634742">
        <ele>0</ele>
        <time>2019-05-19T14:14:06Z</time>
      </trkpt>
      <trkpt lat="51.218569149097" lon="4.454730572294">
        <ele>0</ele>
        <time>2019-05-19T14:14:21Z</time>
      </trkpt>
      <trkpt lat="51.219038703135" lon="4.454191616124">
        <ele>0</ele>
        <time>2019-05-19T14:14:36Z</time>
      </trkpt>
      <trkpt lat="51.219413290246" lon="4.453843934912">
        <ele>0</ele>
        <time>2019-05-19T14:14:51Z</time>
      </trkpt>
      <trkpt lat="51.219414296074" lon="4.453836307383">
        <ele>0</ele>
        <time>2019-05-19T14:14:57Z</time>
      </trkpt>
      <trkpt lat="51.219484368758" lon="4.453779059006">
        <ele>0</ele>
        <time>2019-05-19T14:15:07Z</time>
      </trkpt>
      <trkpt lat="51.219526529715" lon="4.453614103214">
        <ele>0</ele>
        <time>2019-05-19T14:15:12Z</time>
      </trkpt>
      <trkpt lat="51.219205251488" lon="4.452857050006">
        <ele>0</ele>
        <time>2019-05-19T14:15:27Z</time>
      </trkpt>
      <trkpt lat="51.219113469683" lon="4.452109719802">
        <ele>0</ele>
        <time>2019-05-19T14:15:45Z</time>
      </trkpt>
      <trkpt lat="51.219673212965" lon="4.452003353491">
        <ele>0</ele>
        <time>2019-05-19T14:16:00Z</time>
      </trkpt>
      <trkpt lat="51.220244104174" lon="4.451920205043">
        <ele>2.4</ele>
        <time>2019-05-19T14:16:14Z</time>
      </trkpt>
      <trkpt lat="51.220788089484" lon="4.45181819732">
        <ele>5.6</ele>
        <time>2019-05-19T14:16:25Z</time>
      </trkpt>
      <trkpt lat="51.221364680385" lon="4.451710657543">
        <ele>1</ele>
        <time>2019-05-19T14:16:39Z</time>
      </trkpt>
      <trkpt lat="51.221733483985" lon="4.451563890474">
        <ele>0</ele>
        <time>2019-05-19T14:16:47Z</time>
      </trkpt>
      <trkpt lat="51.222224076592" lon="4.451200535109">
        <ele>0</ele>
        <time>2019-05-19T14:16:58Z</time>
      </trkpt>
      <trkpt lat="51.222774264508" lon="4.451073716962">
        <ele>0</ele>
        <time>2019-05-19T14:17:12Z</time>
      </trkpt>
      <trkpt lat="51.223310370832" lon="4.451229536483">
        <ele>0</ele>
        <time>2019-05-19T14:17:27Z</time>
      </trkpt>
      <trkpt lat="51.22384865645" lon="4.451398012673">
        <ele>0</ele>
        <time>2019-05-19T14:17:41Z</time>
      </trkpt>
      <trkpt lat="51.223937085495" lon="4.451393905542">
        <ele>0</ele>
        <time>2019-05-19T14:17:43Z</time>
      </trkpt>
      <trkpt lat="51.224024424893" lon="4.451367670195">
        <ele>0</ele>
        <time>2019-05-19T14:17:45Z</time>
      </trkpt>
      <trkpt lat="51.224105394047" lon="4.451306398506">
        <ele>0</ele>
        <time>2019-05-19T14:17:47Z</time>
      </trkpt>
      <trkpt lat="51.224501522641" lon="4.450724694646">
        <ele>0</ele>
        <time>2019-05-19T14:18:00Z</time>
      </trkpt>
      <trkpt lat="51.224905697859" lon="4.450109882281">
        <ele>0</ele>
        <time>2019-05-19T14:18:13Z</time>
      </trkpt>
      <trkpt lat="51.225330827827" lon="4.44969757662">
        <ele>0</ele>
        <time>2019-05-19T14:18:28Z</time>
      </trkpt>
      <trkpt lat="51.225418334863" lon="4.4496824892">
        <ele>0</ele>
        <time>2019-05-19T14:18:30Z</time>
      </trkpt>
      <trkpt lat="51.225850086532" lon="4.449650805618">
        <ele>0</ele>
        <time>2019-05-19T14:18:40Z</time>
      </trkpt>
      <trkpt lat="51.226234229009" lon="4.449062312419">
        <ele>0</ele>
        <time>2019-05-19T14:18:55Z</time>
      </trkpt>
      <trkpt lat="51.22632299333" lon="4.448874306402">
        <ele>0</ele>
        <time>2019-05-19T14:19:00Z</time>
      </trkpt>
      <trkpt lat="51.226377810956" lon="4.448911605857">
        <ele>0</ele>
        <time>2019-05-19T14:19:02Z</time>
      </trkpt>
      <trkpt lat="51.226639158598" lon="4.449289797185">
        <ele>0</ele>
        <time>2019-05-19T14:19:12Z</time>
      </trkpt>
      <trkpt lat="51.226809311168" lon="4.449074969088">
        <ele>0</ele>
        <time>2019-05-19T14:19:21Z</time>
      </trkpt>
      <trkpt lat="51.226863039147" lon="4.449052254139">
        <ele>0</ele>
        <time>2019-05-19T14:19:24Z</time>
      </trkpt>
      <trkpt lat="51.226972758218" lon="4.448952844805">
        <ele>3.2</ele>
        <time>2019-05-19T14:19:38Z</time>
      </trkpt>
      <trkpt lat="51.22740844938" lon="4.448368458737">
        <ele>8.6</ele>
        <time>2019-05-19T14:19:56Z</time>
      </trkpt>
      <trkpt lat="51.227807092544" lon="4.447751215621">
        <ele>12.8</ele>
        <time>2019-05-19T14:20:13Z</time>
      </trkpt>
      <trkpt lat="51.228203640233" lon="4.447156016902">
        <ele>16.2</ele>
        <time>2019-05-19T14:20:30Z</time>
      </trkpt>
      <trkpt lat="51.228639163757" lon="4.447664043861">
        <ele>3.2</ele>
        <time>2019-05-19T14:20:43Z</time>
      </trkpt>
      <trkpt lat="51.229053648712" lon="4.448289920334">
        <ele>0</ele>
        <time>2019-05-19T14:20:59Z</time>
      </trkpt>
      <trkpt lat="51.229324970815" lon="4.448787386099">
        <ele>0</ele>
        <time>2019-05-19T14:21:19Z</time>
      </trkpt>
      <trkpt lat="51.228959603794" lon="4.44847298103">
        <ele>0.8</ele>
        <time>2019-05-19T14:21:39Z</time>
      </trkpt>
      <trkpt lat="51.228815435114" lon="4.448654784441">
        <ele>5.2</ele>
        <time>2019-05-19T14:21:53Z</time>
      </trkpt>
      <trkpt lat="51.228514189628" lon="4.449124003203">
        <ele>1.6</ele>
        <time>2019-05-19T14:22:09Z</time>
      </trkpt>
      <trkpt lat="51.228505807728" lon="4.449130038171">
        <ele>0</ele>
        <time>2019-05-19T14:22:14Z</time>
      </trkpt>
      <trkpt lat="51.228712421563" lon="4.448830804341">
        <ele>0</ele>
        <time>2019-05-19T14:22:27Z</time>
      </trkpt>
      <trkpt lat="51.228685934759" lon="4.448821081337">
        <ele>0</ele>
        <time>2019-05-19T14:22:29Z</time>
      </trkpt>
      <trkpt lat="51.228502706425" lon="4.449232967903">
        <ele>0</ele>
        <time>2019-05-19T14:22:43Z</time>
      </trkpt>
    </trkseg>
  </trk>
</gpx>